createdAt,value
2022-08-07T00:00:05.671Z,22.97
2022-08-07T00:02:36.426Z,22.96
2022-08-07T00:05:07.131Z,22.97
2022-08-07T00:07:40.543Z,22.96
2022-08-07T00:10:25.991Z,22.96
2022-08-07T00:13:00.383Z,22.97
2022-08-07T00:15:37.644Z,22.96
2022-08-07T00:18:18.719Z,22.97
2022-08-07T00:20:45.564Z,22.97
2022-08-07T00:23:14.030Z,22.97
2022-08-07T00:25:41.415Z,22.97
2022-08-07T00:28:07.906Z,22.96
2022-08-07T00:30:36.439Z,22.96
2022-08-07T00:33:02.281Z,22.95
2022-08-07T00:35:29.624Z,22.97
2022-08-07T00:37:56.257Z,22.96
2022-08-07T00:40:39.638Z,22.95
2022-08-07T00:43:12.823Z,22.96
2022-08-07T00:45:55.638Z,22.95
2022-08-07T00:48:30.824Z,22.96
2022-08-07T00:50:57.539Z,22.96
2022-08-07T00:53:23.250Z,22.95
2022-08-07T00:56:02.425Z,22.96
2022-08-07T00:58:29.880Z,22.96
2022-08-07T01:00:55.510Z,22.96
2022-08-07T01:03:25.476Z,22.97
2022-08-07T01:06:07.613Z,22.95
2022-08-07T01:08:33.858Z,22.96
2022-08-07T01:11:00.732Z,22.96
2022-08-07T01:13:55.546Z,22.96
2022-08-07T01:16:30.318Z,22.96
2022-08-07T01:18:56.790Z,22.96
2022-08-07T01:21:26.090Z,22.96
2022-08-07T01:23:53.361Z,22.96
2022-08-07T01:26:20.239Z,22.96
2022-08-07T01:28:48.287Z,22.96
2022-08-07T01:31:17.753Z,22.96
2022-08-07T01:33:53.577Z,22.95
2022-08-07T01:36:22.790Z,22.96
2022-08-07T01:39:00.153Z,22.96
2022-08-07T01:41:26.965Z,22.96
2022-08-07T01:43:52.865Z,22.96
2022-08-07T01:46:19.503Z,22.96
2022-08-07T01:48:47.928Z,22.97
2022-08-07T01:51:58.673Z,22.95
2022-08-07T01:54:12.683Z,22.95
2022-08-07T01:56:51.413Z,22.96
2022-08-07T01:59:22.240Z,22.96
2022-08-07T02:01:59.781Z,22.96
2022-08-07T02:04:37.904Z,22.95
2022-08-07T02:07:06.095Z,22.95
2022-08-07T02:09:33.887Z,22.96
2022-08-07T02:12:18.539Z,22.95
2022-08-07T02:14:46.628Z,22.96
2022-08-07T02:17:12.514Z,22.96
2022-08-07T02:20:04.586Z,22.95
2022-08-07T02:22:30.514Z,22.95
2022-08-07T02:24:56.714Z,22.95
2022-08-07T02:27:24.595Z,22.95
2022-08-07T02:29:54.532Z,22.95
2022-08-07T02:32:23.499Z,22.95
2022-08-07T02:34:53.887Z,22.95
2022-08-07T02:37:21.126Z,22.95
2022-08-07T02:40:11.789Z,22.95
2022-08-07T02:42:34.162Z,22.95
2022-08-07T02:45:13.611Z,22.95
2022-08-07T02:47:49.081Z,22.96
2022-08-07T02:50:15.128Z,22.95
2022-08-07T02:52:47.805Z,22.95
2022-08-07T02:55:28.628Z,22.94
2022-08-07T02:58:10.047Z,22.95
2022-08-07T03:00:39.257Z,22.95
2022-08-07T03:03:07.061Z,22.94
2022-08-07T03:05:39.565Z,22.95
2022-08-07T03:08:10.112Z,22.96
2022-08-07T03:10:41.106Z,22.96
2022-08-07T03:13:14.489Z,22.95
2022-08-07T03:15:56.833Z,22.95
2022-08-07T03:18:34.322Z,22.95
2022-08-07T03:21:03.468Z,22.95
2022-08-07T03:23:33.961Z,22.95
2022-08-07T03:26:21.205Z,22.95
2022-08-07T03:28:49.601Z,22.95
2022-08-07T03:31:18.410Z,22.95
2022-08-07T03:33:46.061Z,22.94
2022-08-07T03:36:14.568Z,22.95
2022-08-07T03:38:43.152Z,22.95
2022-08-07T03:41:11.451Z,22.95
2022-08-07T03:43:37.844Z,22.94
2022-08-07T03:46:18.413Z,22.94
2022-08-07T03:48:45.420Z,22.94
2022-08-07T03:51:31.023Z,22.94
2022-08-07T03:54:36.169Z,22.95
2022-08-07T03:57:04.006Z,22.94
2022-08-07T03:59:33.479Z,22.95
2022-08-07T04:01:59.544Z,22.95
2022-08-07T04:04:25.339Z,22.96
2022-08-07T04:06:52.252Z,22.95
2022-08-07T04:09:19.476Z,22.95
2022-08-07T04:12:24.568Z,22.94
2022-08-07T04:14:38.892Z,22.94
2022-08-07T04:17:20.336Z,22.94
2022-08-07T04:19:52.832Z,22.94
2022-08-07T04:22:23.479Z,22.94
2022-08-07T04:24:54.911Z,22.95
2022-08-07T04:27:25.780Z,22.95
2022-08-07T04:30:01.244Z,22.94
2022-08-07T04:32:34.287Z,22.95
2022-08-07T04:35:03.896Z,22.95
2022-08-07T04:37:40.383Z,22.94
2022-08-07T04:40:17.404Z,22.94
2022-08-07T04:42:45.448Z,22.95
2022-08-07T04:45:22.733Z,22.94
2022-08-07T04:48:10.656Z,22.94
2022-08-07T04:50:44.528Z,22.94
2022-08-07T04:54:01.728Z,22.94
2022-08-07T04:58:10.887Z,22.94
2022-08-07T05:00:10.784Z,22.93
2022-08-07T05:02:23.334Z,22.94
2022-08-07T05:05:52.857Z,22.94
2022-08-07T05:08:03.857Z,22.94
2022-08-07T05:10:38.270Z,22.94
2022-08-07T05:14:44.763Z,22.95
2022-08-07T05:15:55.130Z,22.95
2022-08-07T05:18:29.593Z,22.94
2022-08-07T05:20:57.554Z,22.93
2022-08-07T05:23:32.308Z,22.94
2022-08-07T05:26:13.647Z,22.94
2022-08-07T05:28:48.604Z,22.94
2022-08-07T05:31:17.382Z,22.95
2022-08-07T05:34:01.151Z,22.93
2022-08-07T05:36:35.087Z,22.93
2022-08-07T05:40:05.018Z,22.94
2022-08-07T05:42:01.552Z,22.93
2022-08-07T05:44:30.186Z,22.93
2022-08-07T05:46:55.901Z,22.93
2022-08-07T05:49:22.092Z,22.93
2022-08-07T05:51:47.756Z,22.93
2022-08-07T05:54:31.233Z,22.93
2022-08-07T05:57:02.118Z,22.94
2022-08-07T05:59:38.984Z,22.92
2022-08-07T06:02:22.512Z,22.94
2022-08-07T06:04:57.070Z,22.92
2022-08-07T06:08:14.572Z,22.92
2022-08-07T06:10:15.124Z,22.94
2022-08-07T06:12:41.271Z,22.92
2022-08-07T06:15:08.883Z,22.93
2022-08-07T06:17:37.555Z,22.93
2022-08-07T06:20:05.609Z,22.93
2022-08-07T06:22:38.535Z,22.94
2022-08-07T06:25:05.203Z,22.93
2022-08-07T06:27:43.961Z,22.93
2022-08-07T06:30:31.819Z,22.92
2022-08-07T06:33:03.544Z,22.94
2022-08-07T06:35:39.054Z,22.93
2022-08-07T06:38:20.230Z,22.93
2022-08-07T06:40:49.173Z,22.92
2022-08-07T06:43:21.034Z,22.93
2022-08-07T06:45:48.489Z,22.92
2022-08-07T06:48:14.121Z,22.92
2022-08-07T06:50:43.340Z,22.92
2022-08-07T06:53:18.577Z,22.92
2022-08-07T06:56:01.896Z,22.92
2022-08-07T06:58:28.889Z,22.92
2022-08-07T07:00:58.191Z,22.92
2022-08-07T07:03:39.729Z,22.92
2022-08-07T07:06:11.242Z,22.92
2022-08-07T07:08:39.948Z,22.92
2022-08-07T07:11:14.008Z,22.91
2022-08-07T07:14:02.537Z,22.92
2022-08-07T07:16:30.775Z,22.92
2022-08-07T07:19:04.106Z,22.92
2022-08-07T07:22:12.143Z,22.93
2022-08-07T07:24:34.212Z,22.92
2022-08-07T07:27:02.868Z,22.91
2022-08-07T07:29:56.018Z,22.92
2022-08-07T07:32:19.901Z,22.91
2022-08-07T07:34:48.657Z,22.91
2022-08-07T07:37:44.426Z,22.91
2022-08-07T07:40:10.231Z,22.92
2022-08-07T07:42:41.991Z,22.92
2022-08-07T07:45:09.095Z,22.92
2022-08-07T07:47:52.177Z,22.91
2022-08-07T07:50:33.877Z,22.90
2022-08-07T07:53:05.389Z,22.91
2022-08-07T07:55:57.987Z,22.92
2022-08-07T07:58:28.932Z,22.91
2022-08-07T08:00:54.473Z,22.91
2022-08-07T08:04:09.437Z,22.90
2022-08-07T08:06:11.628Z,22.91
2022-08-07T08:08:41.924Z,22.91
2022-08-07T08:11:13.595Z,22.91
2022-08-07T08:13:53.208Z,22.91
2022-08-07T08:16:25.152Z,22.90
2022-08-07T08:19:17.706Z,22.91
2022-08-07T08:22:19.049Z,22.91
2022-08-07T08:25:25.111Z,22.90
2022-08-07T08:27:56.593Z,22.91
2022-08-07T08:30:28.320Z,22.91
2022-08-07T08:32:57.855Z,22.91
2022-08-07T08:35:25.176Z,22.91
2022-08-07T08:38:01.418Z,22.90
2022-08-07T08:40:32.333Z,22.89
2022-08-07T08:43:08.573Z,22.91
2022-08-07T08:45:59.091Z,22.91
2022-08-07T08:48:50.973Z,22.91
2022-08-07T08:52:13.434Z,22.91
2022-08-07T08:54:56.238Z,22.91
2022-08-07T08:57:35.530Z,22.90
2022-08-07T09:00:07.430Z,22.90
2022-08-07T09:02:58.010Z,22.90
2022-08-07T09:05:37.157Z,22.91
2022-08-07T09:11:43.008Z,22.91
2022-08-07T09:14:31.366Z,22.90
2022-08-07T09:17:04.214Z,22.90
2022-08-07T09:19:53.611Z,22.90
2022-08-07T09:24:32.557Z,22.89
2022-08-07T09:26:00.211Z,22.89
2022-08-07T09:30:01.463Z,22.90
2022-08-07T09:31:49.311Z,22.90
2022-08-07T09:34:21.268Z,22.89
2022-08-07T09:36:58.944Z,22.90
2022-08-07T09:39:54.869Z,22.90
2022-08-07T09:47:20.077Z,22.90
2022-08-07T09:48:50.281Z,22.89
2022-08-07T09:52:15.955Z,22.90
2022-08-07T09:54:46.785Z,22.90
2022-08-07T09:57:47.142Z,22.89
2022-08-07T10:00:15.849Z,22.90
2022-08-07T10:04:05.293Z,22.90
2022-08-07T10:06:29.740Z,22.91
2022-08-07T10:09:08.732Z,22.91
2022-08-07T10:12:21.451Z,22.90
2022-08-07T10:15:04.353Z,22.89
2022-08-07T10:18:01.678Z,22.89
2022-08-07T10:20:38.897Z,22.90
2022-08-07T10:24:06.893Z,22.89
2022-08-07T10:29:35.038Z,22.89
2022-08-07T10:32:53.778Z,22.90
2022-08-07T10:35:53.674Z,22.89
2022-08-07T10:38:36.302Z,22.89
2022-08-07T10:41:51.944Z,22.89
2022-08-07T10:44:28.362Z,22.89
2022-08-07T10:47:16.794Z,22.89
2022-08-07T10:49:50.765Z,22.90
2022-08-07T10:52:33.601Z,22.89
2022-08-07T10:55:36.817Z,22.89
2022-08-07T10:58:32.010Z,22.89
2022-08-07T11:01:51.405Z,22.90
2022-08-07T11:05:08.699Z,22.87
2022-08-07T11:08:02.660Z,22.89
2022-08-07T11:10:59.799Z,22.89
2022-08-07T11:14:43.717Z,22.88
2022-08-07T11:16:59.546Z,22.89
2022-08-07T11:19:50.528Z,22.89
2022-08-07T11:22:32.311Z,22.90
2022-08-07T11:25:16.048Z,22.89
2022-08-07T11:28:01.906Z,22.89
2022-08-07T11:30:41.662Z,22.88
2022-08-07T11:33:59.297Z,22.90
2022-08-07T11:36:39.171Z,22.89
2022-08-07T11:39:19.545Z,22.89
2022-08-07T11:42:02.192Z,22.88
2022-08-07T11:44:35.821Z,22.89
2022-08-07T11:47:15.397Z,22.89
2022-08-07T11:50:31.455Z,22.90
2022-08-07T11:53:15.980Z,22.89
2022-08-07T11:56:27.251Z,22.89
2022-08-07T12:00:08.320Z,22.89
2022-08-07T12:02:30.548Z,22.87
2022-08-07T12:05:47.073Z,22.88
2022-08-07T12:08:25.903Z,22.89
2022-08-07T12:11:20.811Z,22.90
2022-08-07T12:13:56.224Z,22.89
2022-08-07T12:16:43.521Z,22.89
2022-08-07T12:22:55.941Z,22.88
2022-08-07T12:26:03.363Z,22.88
2022-08-07T12:29:00.950Z,22.87
2022-08-07T12:31:52.691Z,22.89
2022-08-07T12:34:29.401Z,22.90
2022-08-07T12:36:56.271Z,22.88
2022-08-07T12:39:44.160Z,22.88
2022-08-07T12:42:10.228Z,22.90
2022-08-07T12:44:40.217Z,22.88
2022-08-07T12:47:27.191Z,22.89
2022-08-07T12:52:58.765Z,22.90
2022-08-07T12:55:41.458Z,22.89
2022-08-07T12:58:17.834Z,22.89
2022-08-07T13:04:02.454Z,22.89
2022-08-07T13:07:10.405Z,22.89
2022-08-07T13:10:39.268Z,22.89
2022-08-07T13:16:09.791Z,22.90
2022-08-07T13:21:50.292Z,22.90
2022-08-07T13:24:21.332Z,22.90
2022-08-07T13:27:14.830Z,22.89
2022-08-07T13:29:57.353Z,22.87
2022-08-07T13:32:32.523Z,22.90
2022-08-07T13:35:08.743Z,22.89
2022-08-07T13:37:55.407Z,22.89
2022-08-07T13:40:36.188Z,22.87
2022-08-07T13:43:12.207Z,22.89
2022-08-07T13:46:21.040Z,22.90
2022-08-07T13:48:34.205Z,22.89
2022-08-07T13:51:01.896Z,22.89
2022-08-07T13:53:59.839Z,22.89
2022-08-07T13:56:36.217Z,22.89
2022-08-07T13:59:24.873Z,22.90
2022-08-07T14:02:04.435Z,22.89
2022-08-07T14:04:35.678Z,22.90
2022-08-07T14:07:04.848Z,22.90
2022-08-07T14:10:17.623Z,22.89
2022-08-07T14:12:27.327Z,22.89
2022-08-07T14:14:59.517Z,22.90
2022-08-07T14:18:13.193Z,22.88
2022-08-07T14:20:40.473Z,22.89
2022-08-07T14:23:08.317Z,22.89
2022-08-07T14:25:39.519Z,22.88
2022-08-07T14:28:14.097Z,22.90
2022-08-07T14:30:40.749Z,22.91
2022-08-07T14:33:07.504Z,22.90
2022-08-07T14:35:45.307Z,22.88
2022-08-07T14:38:26.313Z,22.88
2022-08-07T14:41:03.996Z,22.90
2022-08-07T14:43:57.411Z,22.90
2022-08-07T14:46:30.641Z,22.89
2022-08-07T14:48:58.072Z,22.89
2022-08-07T14:51:27.193Z,22.89
2022-08-07T14:57:02.914Z,22.90
2022-08-07T15:00:04.850Z,22.90
2022-08-07T15:02:34.062Z,22.90
2022-08-07T15:05:01.731Z,22.88
2022-08-07T15:07:51.333Z,22.89
2022-08-07T15:10:26.323Z,22.88
2022-08-07T15:12:58.228Z,22.89
2022-08-07T15:15:33.696Z,22.89
2022-08-07T15:18:14.571Z,22.90
2022-08-07T15:20:58.334Z,22.90
2022-08-07T15:25:14.459Z,22.89
2022-08-07T15:26:21.666Z,22.90
2022-08-07T15:32:00.886Z,22.89
2022-08-07T15:34:21.312Z,22.90
2022-08-07T15:37:04.106Z,22.89
2022-08-07T15:39:57.312Z,22.90
2022-08-07T15:45:57.547Z,22.90
2022-08-07T15:51:08.446Z,22.91
2022-08-07T15:53:51.810Z,22.90
2022-08-07T15:56:24.208Z,22.90
2022-08-07T15:58:57.980Z,22.91
2022-08-07T16:01:39.305Z,22.91
2022-08-07T16:04:14.657Z,22.90
2022-08-07T16:06:49.295Z,22.90
2022-08-07T16:12:05.190Z,22.91
2022-08-07T16:14:59.913Z,22.89
2022-08-07T16:18:02.338Z,22.90
2022-08-07T16:20:41.730Z,22.90
2022-08-07T16:23:53.199Z,22.91
2022-08-07T16:26:30.757Z,22.91
2022-08-07T16:30:10.356Z,22.90
2022-08-07T16:32:34.713Z,22.90
2022-08-07T16:35:52.097Z,22.90
2022-08-07T16:38:57.454Z,22.90
2022-08-07T16:41:48.636Z,22.90
2022-08-07T16:45:04.138Z,22.90
2022-08-07T16:47:51.216Z,22.89
2022-08-07T16:50:48.442Z,22.90
2022-08-07T16:56:18.829Z,22.90
2022-08-07T16:59:14.201Z,22.89
2022-08-07T17:01:57.424Z,22.90
2022-08-07T17:07:28.344Z,22.89
2022-08-07T17:10:32.596Z,22.90
2022-08-07T17:13:21.826Z,22.90
2022-08-07T17:15:58.413Z,22.89
2022-08-07T17:18:42.288Z,22.90
2022-08-07T17:21:19.129Z,22.90
2022-08-07T17:23:56.864Z,22.90
2022-08-07T17:26:50.019Z,22.90
2022-08-07T17:30:14.010Z,22.88
2022-08-07T17:32:52.163Z,22.90
2022-08-07T17:35:51.305Z,22.89
2022-08-07T17:38:33.129Z,22.90
2022-08-07T17:42:00.674Z,22.90
2022-08-07T17:44:02.198Z,22.90
2022-08-07T17:46:36.612Z,22.90
2022-08-07T17:49:14.934Z,22.90
2022-08-07T17:52:06.128Z,22.90
2022-08-07T17:54:53.795Z,22.90
2022-08-07T17:57:56.530Z,22.91
2022-08-07T18:00:34.078Z,22.90
2022-08-07T18:03:21.537Z,22.90
2022-08-07T18:06:16.591Z,22.90
2022-08-07T18:09:01.425Z,22.90
2022-08-07T18:12:06.329Z,22.91
2022-08-07T18:14:37.493Z,22.90
2022-08-07T18:18:45.627Z,22.90
2022-08-07T18:21:10.091Z,22.89
2022-08-07T18:23:41.014Z,22.90
2022-08-07T18:26:01.350Z,22.90
2022-08-07T18:28:58.661Z,22.91
2022-08-07T18:31:38.858Z,22.90
2022-08-07T18:34:39.360Z,22.91
2022-08-07T18:38:58.086Z,22.90
2022-08-07T18:40:59.830Z,22.91
2022-08-07T18:43:49.101Z,22.90
2022-08-07T18:46:26.997Z,22.91
2022-08-07T18:50:31.694Z,22.91
2022-08-07T18:52:53.147Z,22.90
2022-08-07T18:55:42.745Z,22.89
2022-08-07T18:58:51.237Z,22.91
2022-08-07T19:02:32.246Z,22.91
2022-08-07T19:05:15.380Z,22.91
2022-08-07T19:08:03.922Z,22.90
2022-08-07T19:10:51.230Z,22.90
2022-08-07T19:13:23.509Z,22.91
2022-08-07T19:16:05.330Z,22.90
2022-08-07T19:18:53.597Z,22.90
2022-08-07T19:21:47.466Z,22.91
2022-08-07T19:24:30.496Z,22.91
2022-08-07T19:28:56.698Z,22.91
2022-08-07T19:30:57.101Z,22.91
2022-08-07T19:32:44.122Z,22.90
2022-08-07T19:35:14.601Z,22.91
2022-08-07T19:37:56.714Z,22.91
2022-08-07T19:40:31.923Z,22.90
2022-08-07T19:42:59.629Z,22.91
2022-08-07T19:46:01.289Z,22.91
2022-08-07T19:48:18.628Z,22.90
2022-08-07T19:50:53.422Z,22.91
2022-08-07T19:54:35.361Z,22.90
2022-08-07T19:56:12.173Z,22.91
2022-08-07T19:58:40.008Z,22.91
2022-08-07T20:01:19.576Z,22.91
2022-08-07T20:03:47.112Z,22.91
2022-08-07T20:06:15.540Z,22.90
2022-08-07T20:09:00.839Z,22.90
2022-08-07T20:12:00.902Z,22.90
2022-08-07T20:14:20.768Z,22.90
2022-08-07T20:16:54.504Z,22.90
2022-08-07T20:19:24.173Z,22.90
2022-08-07T20:21:55.260Z,22.91
2022-08-07T20:24:28.905Z,22.90
2022-08-07T20:26:58.123Z,22.91
2022-08-07T20:29:48.092Z,22.91
2022-08-07T20:32:23.128Z,22.91
2022-08-07T20:34:53.673Z,22.91
2022-08-07T20:37:21.563Z,22.91
2022-08-07T20:40:03.925Z,22.91
2022-08-07T20:42:31.114Z,22.90
2022-08-07T20:45:00.166Z,22.92
2022-08-07T20:47:56.565Z,22.91
2022-08-07T20:50:13.671Z,22.91
2022-08-07T20:52:51.409Z,22.91
2022-08-07T20:55:20.284Z,22.90
2022-08-07T20:57:59.990Z,22.90
2022-08-07T21:00:38.091Z,22.90
2022-08-07T21:03:09.790Z,22.91
2022-08-07T21:05:54.679Z,22.91
2022-08-07T21:08:38.101Z,22.91
2022-08-07T21:11:11.961Z,22.91
2022-08-07T21:13:57.575Z,22.91
2022-08-07T21:16:30.493Z,22.91
2022-08-07T21:18:57.223Z,22.91
2022-08-07T21:21:27.222Z,22.91
2022-08-07T21:29:21.223Z,22.91
2022-08-07T21:32:48.103Z,22.92
2022-08-07T21:35:08.073Z,22.91
2022-08-07T21:37:57.993Z,22.92
2022-08-07T21:40:41.042Z,22.92
2022-08-07T21:43:16.973Z,22.92
2022-08-07T21:46:10.743Z,22.91
2022-08-07T21:49:03.096Z,22.90
2022-08-07T21:51:51.321Z,22.91
2022-08-07T21:57:44.758Z,22.91
2022-08-07T22:00:22.826Z,22.90
2022-08-07T22:02:57.230Z,22.91
2022-08-07T22:05:45.544Z,22.91
2022-08-07T22:08:13.670Z,22.91
2022-08-07T22:10:42.370Z,22.91
2022-08-07T22:13:12.070Z,22.92
2022-08-07T22:16:42.501Z,22.92
2022-08-07T22:18:42.325Z,22.91
2022-08-07T22:22:04.763Z,22.92
2022-08-07T22:24:22.592Z,22.92
2022-08-07T22:27:05.710Z,22.91
2022-08-07T22:29:48.494Z,22.91
2022-08-07T22:32:46.220Z,22.91
2022-08-07T22:35:12.153Z,22.91
2022-08-07T22:38:05.397Z,22.91
2022-08-07T22:40:44.332Z,22.91
2022-08-07T22:43:15.130Z,22.92
2022-08-07T22:47:03.809Z,22.90
2022-08-07T22:49:37.673Z,22.91
2022-08-07T22:52:36.837Z,22.91
2022-08-07T22:58:27.564Z,22.92
2022-08-07T23:01:49.516Z,22.91
2022-08-07T23:04:57.721Z,22.91
2022-08-07T23:10:41.879Z,22.91
2022-08-07T23:14:09.154Z,22.91
2022-08-07T23:16:59.521Z,22.91
2022-08-07T23:20:11.649Z,22.91
2022-08-07T23:22:50.012Z,22.91
2022-08-07T23:25:57.041Z,22.91
2022-08-07T23:29:02.524Z,22.91
2022-08-07T23:34:23.251Z,22.92
2022-08-07T23:35:11.389Z,22.91
2022-08-07T23:38:01.291Z,22.92
2022-08-07T23:40:51.659Z,22.91
2022-08-07T23:46:43.272Z,22.92
2022-08-07T23:49:22.944Z,22.91
2022-08-07T23:53:00.300Z,22.91
2022-08-07T23:54:46.358Z,22.92
2022-08-07T23:57:34.812Z,22.91
